River Of Ponds, Canada
Current Conditions -  °F | °C
As of 12:00 PM on Saturday 22 Nov 2014 (Local Time) from CWDH Reporting Station
Broken Clouds Broken Clouds  
Wind Chill:   Ceiling: 2000
Heat Index: 22°   Visibility: 9mi
Dew Point: 11°   Wind: 23mph
Humidity: 64%   Direction: 270°W
Pressure: 29.63"   Gusts: 35mph
Location:  50.53°N, 57.38°W
Report Text: CWDH 221500Z AUTO 27020G30KT 9SM BKN020 M06/M12 A2963 RMK SLP034 PK WND 28030/// T10571115 P0002 60002 70002 WSI/SWOB
Loading
Personal Weather Stations






























Interactive Weather Map New forecast layout! Learn more

10-Day Weather Forecast

Advertisements
Track Severe Weather on mobile